KMBG

Mobridge Municipal Airport

Mobridge, South Dakota, USA
METAR KMBG 260252Z AUTO 18006KT 10SM CLR M05/M10 A2977 RMK AO2 SLP111 T10501100 50002 $
Observed Flight Rules
Feb-26 @ 02:52 UTC (37 minutes ago) Visual Flight Rules
Wind Visibility Clouds
180° at 6 knots 10 miles
  • Clear skies
Temperatures Readings
Current -5°C / 23°F
Dewpoint -10°C / 14°F
Humidity 68%
Altimeter 29.77" Hg
Pressure 1011.1 hPa
Elevation 510
METAR KMBG 260252Z AUTO 18006KT 10SM CLR M05/M10 A2977 RMK AO2 SLP111 T10501100 50002 $
Observed Flight Rules
Feb-26 @ 02:52 UTC
(37 minutes ago)
VFR
Wind Visibility
180° at 6 knots 10 miles
Clouds
  • Clear skies
Temperature Dewpoint
-5°C / 23°F -10°C / 14°F
Humidity Altimeter Pressure
68% 29.77" Hg 1011.1 hPa